East Midlands, United Kingdom

8:10 AM GMT on February 09, 2016 (GMT +0000)
East Midlands | | Change Station
CLOSE
Current Station
Airport
Location: East Midlands,
Elevation: 308 ft
Nearby Weather Stations

Elev 308 ft 52.83 °N, 1.33 °W | Updated 20 minutes ago

Clear
Clear
36 °F
Feels Like 27 °F
N
13
Wind Variable Wind from SW

Today
High -- | Low -- °F
--% Chance of Precip.
Yesterday
High -- | Low -- °F
Precip. -- in
Pressure 29.06 in
Visibility -9999.0 miles
Clouds
Windchill 27 °F
Dew Point 32 °F
Humidity 87%
Rainfall 0.00 in
Snow Depth Not available.
7:35 AM 5:04 PM
New Moon, 1% visible
METAR EGNX 090750Z 23011KT CAVOK 02/00 Q0984
Pressure 29.06 in
Visibility -9999.0 miles
Clouds
Windchill 27 °F
Dew Point 32 °F
Humidity 87%
Rainfall 0.00 in
Snow Depth Not available.
7:35 AM 5:04 PM
New Moon, 1% visible
METAR EGNX 090750Z 23011KT CAVOK 02/00 Q0984

10-Day Weather Forecast

Almanac

Astronomy

Feb. 09, 2016 Rise Set
Actual Time
Civil Twilight
Nautical Twilight
Astronomical Twilight
Moon
Length of Visible Light
Length of Day
Tomorrow will be .
, % of the Moon is Illuminated

Today's Extremes

Country Highs Country Lows

Community

WunderPhotos

Upload Photos

1,891,571 photos uploaded!

WunderBlog® & News

Nearby

Air Quality

  Air Quality AQ Index Pollutant
Not available.

Snow Depth

Station Depth Elevation

Earthquake Activity

City Distance Mag. Time & Date
Minimum magnitude displayed is 2.5.

Coastal Water Temperatures

Place Temperature

Stations

Nearby Weather Stations

Station Location Temp. Windchill Dew Point Humidity Wind Precip. Elev Updated Type